PWSweather.com
Personal Weather Stations
Station Observations
RAINWISE1
Rainwise Factory, Bar Harbor, ME 04609

Rainwise FactoryBar Harbor, ME 04609

Lat: 44.3897429696629, Lon: -68.2077813148499

Elevation: 29

Station Type: Rainwise MK-III

www.rainwise.com

High Low Average
Temperature 73.7°F23.2°F 62.2°F16.8°F 67.3°F19.6°F
Dew Point 65.7°F18.7°F 45.9°F7.7°F 54.6°F12.6°F
Winds 9.1 mph N14.6 mph N Calm Calm 3.0 mph 4.8 mph
Wind Gusts 16.8 mph27.0 mph 1.1 mph1.8 mph 6.1 mph9.8 mph
Humidity 96% 39% 66%
Pressure 0.00 in0.00 in 0.00 in0.00 in -
Precipitation 0.00 in0.00 in - -
Hour Temp Dew Point Humidity Winds Wind Gusts Pressure Precip Precip Rate Daily Precip Total
12:00 AM 67.2°F19.6°C 65.7°F18.7°C 95% 1.7 mph NNE2.7 kmh NNE 4.2 mph6.8 kmh 0.00 in0.0 mb 0.00 in0.0 mm 0.00 in0.0 mm 0.00 in0.0 mm
12:05 AM 67.1°F19.5°C 65.6°F18.7°C 95% 1.8 mph NNW2.9 kmh NNW 3.7 mph6.0 kmh 0.00 in0.0 mb 0.00 in0.0 mm 0.00 in0.0 mm 0.00 in0.0 mm
12:10 AM 67.0°F19.4°C 65.5°F18.6°C 95% 1.2 mph NNE1.9 kmh NNE 2.6 mph4.2 kmh 0.00 in0.0 mb 0.00 in0.0 mm 0.00 in0.0 mm 0.00 in0.0 mm
12:15 AM 66.9°F19.4°C 65.4°F18.6°C 95% 3.0 mph N4.8 kmh N 5.4 mph8.7 kmh 0.00 in0.0 mb 0.00 in0.0 mm 0.00 in0.0 mm 0.00 in0.0 mm
12:20 AM 66.9°F19.4°C 65.4°F18.6°C 95% 3.7 mph NNE6.0 kmh NNE 6.2 mph10.0 kmh 0.00 in0.0 mb 0.00 in0.0 mm 0.00 in0.0 mm 0.00 in0.0 mm
12:25 AM 67.0°F19.4°C 65.5°F18.6°C 95% 3.0 mph N4.8 kmh N 4.9 mph7.9 kmh 0.00 in0.0 mb 0.00 in0.0 mm 0.00 in0.0 mm 0.00 in0.0 mm
12:30 AM 67.0°F19.4°C 65.2°F18.4°C 94% 2.1 mph NNE3.4 kmh NNE 4.2 mph6.8 kmh 0.00 in0.0 mb 0.00 in0.0 mm 0.00 in0.0 mm 0.00 in0.0 mm
12:35 AM 66.9°F19.4°C 65.1°F18.4°C 94% 3.2 mph NNE5.1 kmh NNE 6.2 mph10.0 kmh 0.00 in0.0 mb 0.00 in0.0 mm 0.00 in0.0 mm 0.00 in0.0 mm
12:40 AM 66.9°F19.4°C 65.1°F18.4°C 94% 3.6 mph N5.8 kmh N 4.7 mph7.6 kmh 0.00 in0.0 mb 0.00 in0.0 mm 0.00 in0.0 mm 0.00 in0.0 mm
12:44 AM 66.9°F19.4°C 64.8°F18.2°C 93% 1.5 mph N2.4 kmh N 3.5 mph5.6 kmh 0.00 in0.0 mb 0.00 in0.0 mm 0.00 in0.0 mm 0.00 in0.0 mm
12:50 AM 66.7°F19.3°C 64.6°F18.1°C 93% 2.7 mph N4.3 kmh N 4.2 mph6.8 kmh 0.00 in0.0 mb 0.00 in0.0 mm 0.00 in0.0 mm 0.00 in0.0 mm
12:55 AM 66.7°F19.3°C 64.9°F18.3°C 94% 3.2 mph N5.1 kmh N 4.9 mph7.9 kmh 0.00 in0.0 mb 0.00 in0.0 mm 0.00 in0.0 mm 0.00 in0.0 mm
01:00 AM 66.7°F19.3°C 64.9°F18.3°C 94% 3.5 mph N5.6 kmh N 5.5 mph8.9 kmh 0.00 in0.0 mb 0.00 in0.0 mm 0.00 in0.0 mm 0.00 in0.0 mm
01:05 AM 66.7°F19.3°C 64.9°F18.3°C 94% 3.1 mph N5.0 kmh N 4.4 mph7.1 kmh 0.00 in0.0 mb 0.00 in0.0 mm 0.00 in0.0 mm 0.00 in0.0 mm
01:10 AM 66.7°F19.3°C 64.6°F18.1°C 93% 2.9 mph N4.7 kmh N 4.7 mph7.6 kmh 0.00 in0.0 mb 0.00 in0.0 mm 0.00 in0.0 mm 0.00 in0.0 mm
01:15 AM 66.6°F19.2°C 64.8°F18.2°C 94% 3.3 mph N5.3 kmh N 5.0 mph8.0 kmh 0.00 in0.0 mb 0.00 in0.0 mm 0.00 in0.0 mm 0.00 in0.0 mm
01:19 AM 66.5°F19.2°C 64.7°F18.2°C 94% 3.8 mph N6.1 kmh N 5.7 mph9.2 kmh 0.00 in0.0 mb 0.00 in0.0 mm 0.00 in0.0 mm 0.00 in0.0 mm
01:24 AM 66.3°F19.1°C 64.5°F18.1°C 94% 4.2 mph N6.8 kmh N 5.5 mph8.9 kmh 0.00 in0.0 mb 0.00 in0.0 mm 0.00 in0.0 mm 0.00 in0.0 mm
01:29 AM 66.2°F19.0°C 64.4°F18.0°C 94% 3.4 mph NNE5.5 kmh NNE 6.2 mph10.0 kmh 0.00 in0.0 mb 0.00 in0.0 mm 0.00 in0.0 mm 0.00 in0.0 mm
01:34 AM 66.2°F19.0°C 64.4°F18.0°C 94% 3.3 mph NNE5.3 kmh NNE 4.4 mph7.1 kmh 0.00 in0.0 mb 0.00 in0.0 mm 0.00 in0.0 mm 0.00 in0.0 mm
01:39 AM 66.2°F19.0°C 64.7°F18.2°C 95% 3.0 mph NE4.8 kmh NE 4.9 mph7.9 kmh 0.00 in0.0 mb 0.00 in0.0 mm 0.00 in0.0 mm 0.00 in0.0 mm
01:44 AM 66.0°F18.9°C 64.5°F18.1°C 95% 1.3 mph NNE2.1 kmh NNE 3.2 mph5.1 kmh 0.00 in0.0 mb 0.00 in0.0 mm 0.00 in0.0 mm 0.00 in0.0 mm
01:49 AM 66.0°F18.9°C 64.5°F18.1°C 95% 2.0 mph N3.2 kmh N 5.4 mph8.7 kmh 0.00 in0.0 mb 0.00 in0.0 mm 0.00 in0.0 mm 0.00 in0.0 mm
01:54 AM 66.0°F18.9°C 64.5°F18.1°C 95% 4.2 mph N6.8 kmh N 7.0 mph11.3 kmh 0.00 in0.0 mb 0.00 in0.0 mm 0.00 in0.0 mm 0.00 in0.0 mm
01:59 AM 66.0°F18.9°C 64.5°F18.1°C 95% 3.0 mph N4.8 kmh N 4.9 mph7.9 kmh 0.00 in0.0 mb 0.00 in0.0 mm 0.00 in0.0 mm 0.00 in0.0 mm
02:04 AM 66.2°F19.0°C 65.0°F18.3°C 96% 3.6 mph N5.8 kmh N 7.2 mph11.6 kmh 0.00 in0.0 mb 0.00 in0.0 mm 0.00 in0.0 mm 0.00 in0.0 mm
02:09 AM 66.5°F19.2°C 65.0°F18.3°C 95% 2.0 mph N3.2 kmh N 4.4 mph7.1 kmh 0.00 in0.0 mb 0.00 in0.0 mm 0.00 in0.0 mm 0.00 in0.0 mm
02:14 AM 66.5°F19.2°C 65.0°F18.3°C 95% 2.6 mph N4.2 kmh N 4.2 mph6.8 kmh 0.00 in0.0 mb 0.00 in0.0 mm 0.00 in0.0 mm 0.00 in0.0 mm
02:19 AM 66.7°F19.3°C 65.2°F18.4°C 95% 1.5 mph NNE2.4 kmh NNE 3.0 mph4.8 kmh 0.00 in0.0 mb 0.00 in0.0 mm 0.00 in0.0 mm 0.00 in0.0 mm
02:24 AM 66.7°F19.3°C 65.2°F18.4°C 95% 4.1 mph N6.6 kmh N 6.0 mph9.7 kmh 0.00 in0.0 mb 0.00 in0.0 mm 0.00 in0.0 mm 0.00 in0.0 mm
02:29 AM 66.7°F19.3°C 65.2°F18.4°C 95% 3.6 mph N5.8 kmh N 5.5 mph8.9 kmh 0.00 in0.0 mb 0.00 in0.0 mm 0.00 in0.0 mm 0.00 in0.0 mm
02:34 AM 66.7°F19.3°C 65.2°F18.4°C 95% 2.3 mph N3.7 kmh N 3.7 mph6.0 kmh 0.00 in0.0 mb 0.00 in0.0 mm 0.00 in0.0 mm 0.00 in0.0 mm
02:39 AM 66.7°F19.3°C 64.9°F18.3°C 94% 3.0 mph NE4.8 kmh NE 5.4 mph8.7 kmh 0.00 in0.0 mb 0.00 in0.0 mm 0.00 in0.0 mm 0.00 in0.0 mm
02:44 AM 66.9°F19.4°C 65.1°F18.4°C 94% 2.3 mph NE3.7 kmh NE 4.2 mph6.8 kmh 0.00 in0.0 mb 0.00 in0.0 mm 0.00 in0.0 mm 0.00 in0.0 mm
02:49 AM 66.8°F19.3°C 65.0°F18.3°C 94% 3.6 mph N5.8 kmh N 6.5 mph10.5 kmh 0.00 in0.0 mb 0.00 in0.0 mm 0.00 in0.0 mm 0.00 in0.0 mm
02:54 AM 66.7°F19.3°C 64.6°F18.1°C 93% 3.1 mph NE5.0 kmh NE 7.5 mph12.1 kmh 0.00 in0.0 mb 0.00 in0.0 mm 0.00 in0.0 mm 0.00 in0.0 mm
02:59 AM 66.9°F19.4°C 64.5°F18.1°C 92% 2.8 mph NNE4.5 kmh NNE 6.0 mph9.7 kmh 0.00 in0.0 mb 0.00 in0.0 mm 0.00 in0.0 mm 0.00 in0.0 mm
03:04 AM 67.0°F19.4°C 64.3°F17.9°C 91% 3.1 mph NE5.0 kmh NE 4.7 mph7.6 kmh 0.00 in0.0 mb 0.00 in0.0 mm 0.00 in0.0 mm 0.00 in0.0 mm
03:09 AM 67.0°F19.4°C 64.3°F17.9°C 91% 4.8 mph ENE7.7 kmh ENE 7.9 mph12.7 kmh 0.00 in0.0 mb 0.00 in0.0 mm 0.00 in0.0 mm 0.00 in0.0 mm
03:14 AM 67.0°F19.4°C 64.3°F17.9°C 91% 5.2 mph ENE8.4 kmh ENE 8.1 mph13.0 kmh 0.00 in0.0 mb 0.00 in0.0 mm 0.00 in0.0 mm 0.00 in0.0 mm
03:19 AM 67.0°F19.4°C 64.0°F17.8°C 90% 3.0 mph NE4.8 kmh NE 7.0 mph11.3 kmh 0.00 in0.0 mb 0.00 in0.0 mm 0.00 in0.0 mm 0.00 in0.0 mm
03:24 AM 66.9°F19.4°C 63.5°F17.5°C 89% 4.5 mph ESE7.2 kmh ESE 7.5 mph12.1 kmh 0.00 in0.0 mb 0.00 in0.0 mm 0.00 in0.0 mm 0.00 in0.0 mm
03:29 AM 66.7°F19.3°C 63.0°F17.2°C 88% 4.2 mph ENE6.8 kmh ENE 7.0 mph11.3 kmh 0.00 in0.0 mb 0.00 in0.0 mm 0.00 in0.0 mm 0.00 in0.0 mm
03:33 AM 66.9°F19.4°C 62.9°F17.2°C 87% 3.4 mph ENE5.5 kmh ENE 6.7 mph10.8 kmh 0.00 in0.0 mb 0.00 in0.0 mm 0.00 in0.0 mm 0.00 in0.0 mm
03:38 AM 66.7°F19.3°C 62.4°F16.9°C 86% 2.6 mph NE4.2 kmh NE 4.4 mph7.1 kmh 0.00 in0.0 mb 0.00 in0.0 mm 0.00 in0.0 mm 0.00 in0.0 mm
03:43 AM 66.5°F19.2°C 62.2°F16.8°C 86% 3.9 mph NE6.3 kmh NE 5.5 mph8.9 kmh 0.00 in0.0 mb 0.00 in0.0 mm 0.00 in0.0 mm 0.00 in0.0 mm
03:48 AM 66.2°F19.0°C 62.2°F16.8°C 87% 2.2 mph NNE3.5 kmh NNE 5.7 mph9.2 kmh 0.00 in0.0 mb 0.00 in0.0 mm 0.00 in0.0 mm 0.00 in0.0 mm
03:53 AM 66.0°F18.9°C 62.3°F16.8°C 88% 3.0 mph N4.8 kmh N 5.4 mph8.7 kmh 0.00 in0.0 mb 0.00 in0.0 mm 0.00 in0.0 mm 0.00 in0.0 mm
03:59 AM 65.9°F18.8°C 62.6°F17.0°C 89% 4.2 mph N6.8 kmh N 5.5 mph8.9 kmh 0.00 in0.0 mb 0.00 in0.0 mm 0.00 in0.0 mm 0.00 in0.0 mm
04:04 AM 65.7°F18.7°C 62.7°F17.1°C 90% 4.6 mph NNE7.4 kmh NNE 7.9 mph12.7 kmh 0.00 in0.0 mb 0.00 in0.0 mm 0.00 in0.0 mm 0.00 in0.0 mm
04:09 AM 65.7°F18.7°C 62.7°F17.1°C 90% 3.0 mph NNE4.8 kmh NNE 5.0 mph8.0 kmh 0.00 in0.0 mb 0.00 in0.0 mm 0.00 in0.0 mm 0.00 in0.0 mm
04:14 AM 65.6°F18.7°C 62.3°F16.8°C 89% 1.7 mph S2.7 kmh S 4.2 mph6.8 kmh 0.00 in0.0 mb 0.00 in0.0 mm 0.00 in0.0 mm 0.00 in0.0 mm
04:19 AM 65.4°F18.6°C 62.1°F16.7°C 89% 3.3 mph NE5.3 kmh NE 8.1 mph13.0 kmh 0.00 in0.0 mb 0.00 in0.0 mm 0.00 in0.0 mm 0.00 in0.0 mm
04:23 AM 65.4°F18.6°C 61.7°F16.5°C 88% 4.2 mph ENE6.8 kmh ENE 6.0 mph9.7 kmh 0.00 in0.0 mb 0.00 in0.0 mm 0.00 in0.0 mm 0.00 in0.0 mm
04:28 AM 65.4°F18.6°C 61.4°F16.3°C 87% 7.0 mph ENE11.3 kmh ENE 16.8 mph27.0 kmh 0.00 in0.0 mb 0.00 in0.0 mm 0.00 in0.0 mm 0.00 in0.0 mm
04:33 AM 65.4°F18.6°C 61.1°F16.2°C 86% 4.6 mph NNE7.4 kmh NNE 7.0 mph11.3 kmh 0.00 in0.0 mb 0.00 in0.0 mm 0.00 in0.0 mm 0.00 in0.0 mm
04:38 AM 65.2°F18.4°C 60.9°F16.1°C 86% 4.8 mph NE7.7 kmh NE 9.5 mph15.3 kmh 0.00 in0.0 mb 0.00 in0.0 mm 0.00 in0.0 mm 0.00 in0.0 mm
04:43 AM 65.0°F18.3°C 61.0°F16.1°C 87% 2.1 mph NE3.4 kmh NE 4.2 mph6.8 kmh 0.00 in0.0 mb 0.00 in0.0 mm 0.00 in0.0 mm 0.00 in0.0 mm
04:48 AM 64.7°F18.2°C 60.7°F15.9°C 87% 4.9 mph NNE7.9 kmh NNE 11.1 mph17.9 kmh 0.00 in0.0 mb 0.00 in0.0 mm 0.00 in0.0 mm 0.00 in0.0 mm
04:53 AM 64.4°F18.0°C 60.8°F16.0°C 88% 5.9 mph N9.5 kmh N 9.8 mph15.8 kmh 0.00 in0.0 mb 0.00 in0.0 mm 0.00 in0.0 mm 0.00 in0.0 mm
04:58 AM 64.4°F18.0°C 60.8°F16.0°C 88% 3.3 mph ENE5.3 kmh ENE 8.1 mph13.0 kmh 0.00 in0.0 mb 0.00 in0.0 mm 0.00 in0.0 mm 0.00 in0.0 mm
05:03 AM 64.2°F17.9°C 60.9°F16.1°C 89% 2.4 mph NE3.9 kmh NE 6.7 mph10.8 kmh 0.00 in0.0 mb 0.00 in0.0 mm 0.00 in0.0 mm 0.00 in0.0 mm
05:08 AM 64.0°F17.8°C 60.7°F15.9°C 89% 3.5 mph NE5.6 kmh NE 5.7 mph9.2 kmh 0.00 in0.0 mb 0.00 in0.0 mm 0.00 in0.0 mm 0.00 in0.0 mm
05:13 AM 63.8°F17.7°C 60.5°F15.8°C 89% 1.8 mph ENE2.9 kmh ENE 3.7 mph6.0 kmh 0.00 in0.0 mb 0.00 in0.0 mm 0.00 in0.0 mm 0.00 in0.0 mm
05:18 AM 63.6°F17.6°C 60.6°F15.9°C 90% 4.8 mph NNE7.7 kmh NNE 8.4 mph13.5 kmh 0.00 in0.0 mb 0.00 in0.0 mm 0.00 in0.0 mm 0.00 in0.0 mm
05:23 AM 63.5°F17.5°C 60.5°F15.8°C 90% 4.1 mph N6.6 kmh N 6.2 mph10.0 kmh 0.00 in0.0 mb 0.00 in0.0 mm 0.00 in0.0 mm 0.00 in0.0 mm
05:28 AM 63.4°F17.4°C 60.4°F15.8°C 90% 2.1 mph N3.4 kmh N 4.0 mph6.4 kmh 0.00 in0.0 mb 0.00 in0.0 mm 0.00 in0.0 mm 0.00 in0.0 mm
05:33 AM 63.2°F17.3°C 60.5°F15.8°C 91% 3.0 mph NNE4.8 kmh NNE 6.7 mph10.8 kmh 0.00 in0.0 mb 0.00 in0.0 mm 0.00 in0.0 mm 0.00 in0.0 mm
05:38 AM 63.1°F17.3°C 60.4°F15.8°C 91% 3.9 mph N6.3 kmh N 7.0 mph11.3 kmh 0.00 in0.0 mb 0.00 in0.0 mm 0.00 in0.0 mm 0.00 in0.0 mm
05:43 AM 63.0°F17.2°C 60.3°F15.7°C 91% 3.2 mph NNE5.1 kmh NNE 5.4 mph8.7 kmh 0.00 in0.0 mb 0.00 in0.0 mm 0.00 in0.0 mm 0.00 in0.0 mm
05:48 AM 62.9°F17.2°C 60.2°F15.7°C 91% 6.6 mph NE10.6 kmh NE 10.5 mph16.9 kmh 0.00 in0.0 mb 0.00 in0.0 mm 0.00 in0.0 mm 0.00 in0.0 mm
05:53 AM 62.8°F17.1°C 59.8°F15.4°C 90% 4.6 mph N7.4 kmh N 8.4 mph13.5 kmh 0.00 in0.0 mb 0.00 in0.0 mm 0.00 in0.0 mm 0.00 in0.0 mm
05:58 AM 62.9°F17.2°C 60.2°F15.7°C 91% 3.4 mph NNE5.5 kmh NNE 5.4 mph8.7 kmh 0.00 in0.0 mb 0.00 in0.0 mm 0.00 in0.0 mm 0.00 in0.0 mm
06:03 AM 62.7°F17.1°C 60.0°F15.6°C 91% 3.4 mph N5.5 kmh N 8.4 mph13.5 kmh 0.00 in0.0 mb 0.00 in0.0 mm 0.00 in0.0 mm 0.00 in0.0 mm
06:08 AM 62.6°F17.0°C 59.9°F15.5°C 91% 4.4 mph N7.1 kmh N 7.7 mph12.4 kmh 0.00 in0.0 mb 0.00 in0.0 mm 0.00 in0.0 mm 0.00 in0.0 mm
06:13 AM 62.5°F16.9°C 59.5°F15.3°C 90% 4.2 mph N6.8 kmh N 7.0 mph11.3 kmh 0.00 in0.0 mb 0.00 in0.0 mm 0.00 in0.0 mm 0.00 in0.0 mm
06:18 AM 62.5°F16.9°C 59.8°F15.4°C 91% 2.7 mph NNE4.3 kmh NNE 4.9 mph7.9 kmh 0.00 in0.0 mb 0.00 in0.0 mm 0.00 in0.0 mm 0.00 in0.0 mm
06:23 AM 62.3°F16.8°C 59.6°F15.3°C 91% 3.3 mph N5.3 kmh N 6.0 mph9.7 kmh 0.00 in0.0 mb 0.00 in0.0 mm 0.00 in0.0 mm 0.00 in0.0 mm
06:28 AM 62.2°F16.8°C 59.5°F15.3°C 91% 4.8 mph N7.7 kmh N 9.8 mph15.8 kmh 0.00 in0.0 mb 0.00 in0.0 mm 0.00 in0.0 mm 0.00 in0.0 mm
06:33 AM 62.2°F16.8°C 59.5°F15.3°C 91% 4.0 mph N6.4 kmh N 10.6 mph17.1 kmh 0.00 in0.0 mb 0.00 in0.0 mm 0.00 in0.0 mm 0.00 in0.0 mm
06:37 AM 62.2°F16.8°C 59.2°F15.1°C 90% 2.8 mph NE4.5 kmh NE 5.5 mph8.9 kmh 0.00 in0.0 mb 0.00 in0.0 mm 0.00 in0.0 mm 0.00 in0.0 mm
06:43 AM 62.2°F16.8°C 59.2°F15.1°C 90% 4.0 mph NNE6.4 kmh NNE 6.0 mph9.7 kmh 0.00 in0.0 mb 0.00 in0.0 mm 0.00 in0.0 mm 0.00 in0.0 mm
06:48 AM 62.2°F16.8°C 59.2°F15.1°C 90% 6.4 mph N10.3 kmh N 10.6 mph17.1 kmh 0.00 in0.0 mb 0.00 in0.0 mm 0.00 in0.0 mm 0.00 in0.0 mm
06:53 AM 62.2°F16.8°C 58.9°F14.9°C 89% 6.8 mph N10.9 kmh N 9.0 mph14.5 kmh 0.00 in0.0 mb 0.00 in0.0 mm 0.00 in0.0 mm 0.00 in0.0 mm
06:58 AM 62.4°F16.9°C 58.8°F14.9°C 88% 7.1 mph NNE11.4 kmh NNE 13.5 mph21.7 kmh 0.00 in0.0 mb 0.00 in0.0 mm 0.00 in0.0 mm 0.00 in0.0 mm
07:03 AM 62.6°F17.0°C 58.7°F14.8°C 87% 4.9 mph NE7.9 kmh NE 8.4 mph13.5 kmh 0.00 in0.0 mb 0.00 in0.0 mm 0.00 in0.0 mm 0.00 in0.0 mm
07:08 AM 62.7°F17.1°C 58.4°F14.7°C 86% 5.8 mph NE9.3 kmh NE 10.3 mph16.6 kmh 0.00 in0.0 mb 0.00 in0.0 mm 0.00 in0.0 mm 0.00 in0.0 mm
07:13 AM 62.7°F17.1°C 57.8°F14.3°C 84% 5.3 mph NNE8.5 kmh NNE 10.6 mph17.1 kmh 0.00 in0.0 mb 0.00 in0.0 mm 0.00 in0.0 mm 0.00 in0.0 mm
07:17 AM 62.8°F17.1°C 57.6°F14.2°C 83% 8.9 mph NNE14.3 kmh NNE 13.0 mph20.9 kmh 0.00 in0.0 mb 0.00 in0.0 mm 0.00 in0.0 mm 0.00 in0.0 mm
07:23 AM 62.7°F17.1°C 57.5°F14.2°C 83% 4.9 mph NNE7.9 kmh NNE 8.5 mph13.7 kmh 0.00 in0.0 mb 0.00 in0.0 mm 0.00 in0.0 mm 0.00 in0.0 mm
07:27 AM 62.7°F17.1°C 57.5°F14.2°C 83% 4.6 mph N7.4 kmh N 9.3 mph15.0 kmh 0.00 in0.0 mb 0.00 in0.0 mm 0.00 in0.0 mm 0.00 in0.0 mm
07:32 AM 62.7°F17.1°C 57.1°F13.9°C 82% 2.3 mph N3.7 kmh N 7.2 mph11.6 kmh 0.00 in0.0 mb 0.00 in0.0 mm 0.00 in0.0 mm 0.00 in0.0 mm
07:37 AM 62.7°F17.1°C 56.8°F13.8°C 81% 3.4 mph NE5.5 kmh NE 7.9 mph12.7 kmh 0.00 in0.0 mb 0.00 in0.0 mm 0.00 in0.0 mm 0.00 in0.0 mm
07:42 AM 62.7°F17.1°C 56.8°F13.8°C 81% 3.2 mph NE5.1 kmh NE 5.7 mph9.2 kmh 0.00 in0.0 mb 0.00 in0.0 mm 0.00 in0.0 mm 0.00 in0.0 mm
07:47 AM 62.7°F17.1°C 57.1°F13.9°C 82% 3.9 mph NNE6.3 kmh NNE 8.5 mph13.7 kmh 0.00 in0.0 mb 0.00 in0.0 mm 0.00 in0.0 mm 0.00 in0.0 mm
07:52 AM 62.7°F17.1°C 57.1°F13.9°C 82% 2.9 mph N4.7 kmh N 6.0 mph9.7 kmh 0.00 in0.0 mb 0.00 in0.0 mm 0.00 in0.0 mm 0.00 in0.0 mm
07:57 AM 62.8°F17.1°C 56.9°F13.8°C 81% 2.7 mph NNE4.3 kmh NNE 6.7 mph10.8 kmh 0.00 in0.0 mb 0.00 in0.0 mm 0.00 in0.0 mm 0.00 in0.0 mm
08:02 AM 63.0°F17.2°C 57.1°F13.9°C 81% 4.6 mph NE7.4 kmh NE 6.7 mph10.8 kmh 0.00 in0.0 mb 0.00 in0.0 mm 0.00 in0.0 mm 0.00 in0.0 mm
08:07 AM 63.1°F17.3°C 57.2°F14.0°C 81% 5.0 mph NNE8.0 kmh NNE 7.9 mph12.7 kmh 0.00 in0.0 mb 0.00 in0.0 mm 0.00 in0.0 mm 0.00 in0.0 mm
08:12 AM 63.3°F17.4°C 57.4°F14.1°C 81% 2.2 mph NNE3.5 kmh NNE 4.2 mph6.8 kmh 0.00 in0.0 mb 0.00 in0.0 mm 0.00 in0.0 mm 0.00 in0.0 mm
08:17 AM 63.4°F17.4°C 57.1°F13.9°C 80% 3.0 mph NE4.8 kmh NE 9.5 mph15.3 kmh 0.00 in0.0 mb 0.00 in0.0 mm 0.00 in0.0 mm 0.00 in0.0 mm
08:22 AM 63.5°F17.5°C 56.9°F13.8°C 79% 4.6 mph NE7.4 kmh NE 9.8 mph15.8 kmh 0.00 in0.0 mb 0.00 in0.0 mm 0.00 in0.0 mm 0.00 in0.0 mm
08:27 AM 63.6°F17.6°C 57.3°F14.1°C 80% 1.8 mph ESE2.9 kmh ESE 6.0 mph9.7 kmh 0.00 in0.0 mb 0.00 in0.0 mm 0.00 in0.0 mm 0.00 in0.0 mm
08:32 AM 63.8°F17.7°C 56.8°F13.8°C 78% 2.5 mph NE4.0 kmh NE 5.5 mph8.9 kmh 0.00 in0.0 mb 0.00 in0.0 mm 0.00 in0.0 mm 0.00 in0.0 mm
08:37 AM 64.0°F17.8°C 56.6°F13.7°C 77% 1.4 mph N2.3 kmh N 3.2 mph5.1 kmh 0.00 in0.0 mb 0.00 in0.0 mm 0.00 in0.0 mm 0.00 in0.0 mm
08:42 AM 64.2°F17.9°C 56.8°F13.8°C 77% 2.7 mph NNE4.3 kmh NNE 5.7 mph9.2 kmh 0.00 in0.0 mb 0.00 in0.0 mm 0.00 in0.0 mm 0.00 in0.0 mm
08:47 AM 64.5°F18.1°C 56.8°F13.8°C 76% 3.3 mph E5.3 kmh E 6.7 mph10.8 kmh 0.00 in0.0 mb 0.00 in0.0 mm 0.00 in0.0 mm 0.00 in0.0 mm
08:52 AM 64.7°F18.2°C 56.2°F13.4°C 74% 2.9 mph NE4.7 kmh NE 4.9 mph7.9 kmh 0.00 in0.0 mb 0.00 in0.0 mm 0.00 in0.0 mm 0.00 in0.0 mm
08:57 AM 64.9°F18.3°C 56.4°F13.6°C 74% 2.9 mph ENE4.7 kmh ENE 6.2 mph10.0 kmh 0.00 in0.0 mb 0.00 in0.0 mm 0.00 in0.0 mm 0.00 in0.0 mm
09:02 AM 65.3°F18.5°C 56.4°F13.6°C 73% 6.1 mph NE9.8 kmh NE 9.5 mph15.3 kmh 0.00 in0.0 mb 0.00 in0.0 mm 0.00 in0.0 mm 0.00 in0.0 mm
09:07 AM 65.5°F18.6°C 56.6°F13.7°C 73% 2.9 mph NNE4.7 kmh NNE 5.5 mph8.9 kmh 0.00 in0.0 mb 0.00 in0.0 mm 0.00 in0.0 mm 0.00 in0.0 mm
09:12 AM 65.5°F18.6°C 56.2°F13.4°C 72% 0.7 mph E1.1 kmh E 2.1 mph3.4 kmh 0.00 in0.0 mb 0.00 in0.0 mm 0.00 in0.0 mm 0.00 in0.0 mm
09:17 AM 65.5°F18.6°C 56.2°F13.4°C 72% 7.1 mph NNE11.4 kmh NNE 10.6 mph17.1 kmh 0.00 in0.0 mb 0.00 in0.0 mm 0.00 in0.0 mm 0.00 in0.0 mm
09:22 AM 65.5°F18.6°C 55.4°F13.0°C 70% 5.2 mph NE8.4 kmh NE 9.3 mph15.0 kmh 0.00 in0.0 mb 0.00 in0.0 mm 0.00 in0.0 mm 0.00 in0.0 mm
09:27 AM 65.2°F18.4°C 54.8°F12.7°C 69% 4.2 mph NE6.8 kmh NE 8.4 mph13.5 kmh 0.00 in0.0 mb 0.00 in0.0 mm 0.00 in0.0 mm 0.00 in0.0 mm
09:31 AM 65.2°F18.4°C 55.2°F12.9°C 70% 7.6 mph NE12.2 kmh NE 16.6 mph26.7 kmh 0.00 in0.0 mb 0.00 in0.0 mm 0.00 in0.0 mm 0.00 in0.0 mm
09:36 AM 65.4°F18.6°C 55.4°F13.0°C 70% 6.6 mph NNE10.6 kmh NNE 11.4 mph18.3 kmh 0.00 in0.0 mb 0.00 in0.0 mm 0.00 in0.0 mm 0.00 in0.0 mm
09:41 AM 65.4°F18.6°C 55.0°F12.8°C 69% 3.1 mph E5.0 kmh E 7.0 mph11.3 kmh 0.00 in0.0 mb 0.00 in0.0 mm 0.00 in0.0 mm 0.00 in0.0 mm
09:47 AM 65.9°F18.8°C 55.0°F12.8°C 68% 4.7 mph ESE7.6 kmh ESE 9.3 mph15.0 kmh 0.00 in0.0 mb 0.00 in0.0 mm 0.00 in0.0 mm 0.00 in0.0 mm
09:52 AM 66.6°F19.2°C 55.7°F13.2°C 68% 3.1 mph ENE5.0 kmh ENE 4.2 mph6.8 kmh 0.00 in0.0 mb 0.00 in0.0 mm 0.00 in0.0 mm 0.00 in0.0 mm
09:57 AM 67.4°F19.7°C 56.9°F13.8°C 69% 4.2 mph NE6.8 kmh NE 5.4 mph8.7 kmh 0.00 in0.0 mb 0.00 in0.0 mm 0.00 in0.0 mm 0.00 in0.0 mm
10:02 AM 67.7°F19.8°C 56.7°F13.7°C 68% 3.8 mph NE6.1 kmh NE 5.4 mph8.7 kmh 0.00 in0.0 mb 0.00 in0.0 mm 0.00 in0.0 mm 0.00 in0.0 mm
10:07 AM 68.0°F20.0°C 56.2°F13.4°C 66% 4.2 mph NNE6.8 kmh NNE 7.0 mph11.3 kmh 0.00 in0.0 mb 0.00 in0.0 mm 0.00 in0.0 mm 0.00 in0.0 mm
10:11 AM 68.0°F20.0°C 55.4°F13.0°C 64% 4.0 mph NE6.4 kmh NE 7.9 mph12.7 kmh 0.00 in0.0 mb 0.00 in0.0 mm 0.00 in0.0 mm 0.00 in0.0 mm
10:17 AM 68.0°F20.0°C 54.5°F12.5°C 62% 4.0 mph E6.4 kmh E 7.0 mph11.3 kmh 0.00 in0.0 mb 0.00 in0.0 mm 0.00 in0.0 mm 0.00 in0.0 mm
10:21 AM 68.1°F20.1°C 54.1°F12.3°C 61% 4.9 mph NNE7.9 kmh NNE 7.0 mph11.3 kmh 0.00 in0.0 mb 0.00 in0.0 mm 0.00 in0.0 mm 0.00 in0.0 mm
10:26 AM 68.0°F20.0°C 53.6°F12.0°C 60% 5.1 mph NE8.2 kmh NE 10.6 mph17.1 kmh 0.00 in0.0 mb 0.00 in0.0 mm 0.00 in0.0 mm 0.00 in0.0 mm
10:31 AM 68.2°F20.1°C 53.8°F12.1°C 60% 7.0 mph E11.3 kmh E 14.1 mph22.7 kmh 0.00 in0.0 mb 0.00 in0.0 mm 0.00 in0.0 mm 0.00 in0.0 mm
10:36 AM 68.4°F20.2°C 53.5°F11.9°C 59% 4.2 mph SE6.8 kmh SE 6.7 mph10.8 kmh 0.00 in0.0 mb 0.00 in0.0 mm 0.00 in0.0 mm 0.00 in0.0 mm
10:41 AM 68.6°F20.3°C 53.2°F11.8°C 58% 3.5 mph NE5.6 kmh NE 7.2 mph11.6 kmh 0.00 in0.0 mb 0.00 in0.0 mm 0.00 in0.0 mm 0.00 in0.0 mm
10:46 AM 68.9°F20.5°C 53.0°F11.7°C 57% 4.9 mph NE7.9 kmh NE 10.3 mph16.6 kmh 0.00 in0.0 mb 0.00 in0.0 mm 0.00 in0.0 mm 0.00 in0.0 mm
10:51 AM 68.9°F20.5°C 53.0°F11.7°C 57% 5.4 mph ENE8.7 kmh ENE 11.1 mph17.9 kmh 0.00 in0.0 mb 0.00 in0.0 mm 0.00 in0.0 mm 0.00 in0.0 mm
10:56 AM 68.7°F20.4°C 52.4°F11.3°C 56% 5.6 mph NNE9.0 kmh NNE 8.4 mph13.5 kmh 0.00 in0.0 mb 0.00 in0.0 mm 0.00 in0.0 mm 0.00 in0.0 mm
11:01 AM 68.7°F20.4°C 52.4°F11.3°C 56% 9.1 mph N14.6 kmh N 14.0 mph22.5 kmh 0.00 in0.0 mb 0.00 in0.0 mm 0.00 in0.0 mm 0.00 in0.0 mm
11:06 AM 68.9°F20.5°C 52.1°F11.2°C 55% 6.5 mph NNE10.5 kmh NNE 10.6 mph17.1 kmh 0.00 in0.0 mb 0.00 in0.0 mm 0.00 in0.0 mm 0.00 in0.0 mm
11:11 AM 68.6°F20.3°C 50.8°F10.4°C 53% 7.4 mph ENE11.9 kmh ENE 14.6 mph23.5 kmh 0.00 in0.0 mb 0.00 in0.0 mm 0.00 in0.0 mm 0.00 in0.0 mm
11:16 AM 68.5°F20.3°C 51.2°F10.7°C 54% 7.1 mph E11.4 kmh E 12.0 mph19.3 kmh 0.00 in0.0 mb 0.00 in0.0 mm 0.00 in0.0 mm 0.00 in0.0 mm
11:21 AM 68.9°F20.5°C 51.6°F10.9°C 54% 4.2 mph ESE6.8 kmh ESE 10.0 mph16.1 kmh 0.00 in0.0 mb 0.00 in0.0 mm 0.00 in0.0 mm 0.00 in0.0 mm
11:26 AM 69.3°F20.7°C 51.9°F11.1°C 54% 2.9 mph N4.7 kmh N 9.8 mph15.8 kmh 0.00 in0.0 mb 0.00 in0.0 mm 0.00 in0.0 mm 0.00 in0.0 mm
11:31 AM 69.7°F20.9°C 51.8°F11.0°C 53% 4.4 mph NNE7.1 kmh NNE 10.0 mph16.1 kmh 0.00 in0.0 mb 0.00 in0.0 mm 0.00 in0.0 mm 0.00 in0.0 mm
11:36 AM 69.9°F21.1°C 52.0°F11.1°C 53% 6.7 mph NE10.8 kmh NE 13.8 mph22.2 kmh 0.00 in0.0 mb 0.00 in0.0 mm 0.00 in0.0 mm 0.00 in0.0 mm
11:41 AM 69.7°F20.9°C 50.8°F10.4°C 51% 5.6 mph NNE9.0 kmh NNE 11.0 mph17.7 kmh 0.00 in0.0 mb 0.00 in0.0 mm 0.00 in0.0 mm 0.00 in0.0 mm
11:46 AM 69.7°F20.9°C 50.8°F10.4°C 51% 5.9 mph NE9.5 kmh NE 9.8 mph15.8 kmh 0.00 in0.0 mb 0.00 in0.0 mm 0.00 in0.0 mm 0.00 in0.0 mm
11:51 AM 69.6°F20.9°C 50.7°F10.4°C 51% 3.7 mph NNE6.0 kmh NNE 6.2 mph10.0 kmh 0.00 in0.0 mb 0.00 in0.0 mm 0.00 in0.0 mm 0.00 in0.0 mm
11:56 AM 69.5°F20.8°C 51.1°F10.6°C 52% 6.6 mph ENE10.6 kmh ENE 11.1 mph17.9 kmh 0.00 in0.0 mb 0.00 in0.0 mm 0.00 in0.0 mm 0.00 in0.0 mm
12:01 PM 69.6°F20.9°C 51.2°F10.7°C 52% 4.8 mph NE7.7 kmh NE 7.5 mph12.1 kmh 0.00 in0.0 mb 0.00 in0.0 mm 0.00 in0.0 mm 0.00 in0.0 mm
12:06 PM 69.8°F21.0°C 51.4°F10.8°C 52% 5.7 mph NE9.2 kmh NE 9.8 mph15.8 kmh 0.00 in0.0 mb 0.00 in0.0 mm 0.00 in0.0 mm 0.00 in0.0 mm
12:11 PM 70.1°F21.2°C 51.6°F10.9°C 52% 4.7 mph NE7.6 kmh NE 11.0 mph17.7 kmh 0.00 in0.0 mb 0.00 in0.0 mm 0.00 in0.0 mm 0.00 in0.0 mm
12:16 PM 70.4°F21.3°C 50.9°F10.5°C 50% 2.8 mph SE4.5 kmh SE 8.5 mph13.7 kmh 0.00 in0.0 mb 0.00 in0.0 mm 0.00 in0.0 mm 0.00 in0.0 mm
12:21 PM 71.1°F21.7°C 52.0°F11.1°C 51% 4.5 mph NE7.2 kmh NE 9.8 mph15.8 kmh 0.00 in0.0 mb 0.00 in0.0 mm 0.00 in0.0 mm 0.00 in0.0 mm
12:26 PM 71.7°F22.1°C 52.6°F11.4°C 51% 5.7 mph NE9.2 kmh NE 11.1 mph17.9 kmh 0.00 in0.0 mb 0.00 in0.0 mm 0.00 in0.0 mm 0.00 in0.0 mm
12:31 PM 71.6°F22.0°C 52.5°F11.4°C 51% 4.9 mph NE7.9 kmh NE 8.9 mph14.3 kmh 0.00 in0.0 mb 0.00 in0.0 mm 0.00 in0.0 mm 0.00 in0.0 mm
12:36 PM 71.5°F21.9°C 51.3°F10.7°C 49% 4.4 mph NNE7.1 kmh NNE 7.9 mph12.7 kmh 0.00 in0.0 mb 0.00 in0.0 mm 0.00 in0.0 mm 0.00 in0.0 mm
12:41 PM 71.5°F21.9°C 51.9°F11.1°C 50% 7.4 mph N11.9 kmh N 13.0 mph20.9 kmh 0.00 in0.0 mb 0.00 in0.0 mm 0.00 in0.0 mm 0.00 in0.0 mm
12:46 PM 71.5°F21.9°C 51.9°F11.1°C 50% 3.3 mph NE5.3 kmh NE 6.5 mph10.5 kmh 0.00 in0.0 mb 0.00 in0.0 mm 0.00 in0.0 mm 0.00 in0.0 mm
12:51 PM 71.7°F22.1°C 52.6°F11.4°C 51% 4.6 mph ENE7.4 kmh ENE 7.9 mph12.7 kmh 0.00 in0.0 mb 0.00 in0.0 mm 0.00 in0.0 mm 0.00 in0.0 mm
12:56 PM 71.7°F22.1°C 52.1°F11.2°C 50% 7.5 mph N12.1 kmh N 11.9 mph19.2 kmh 0.00 in0.0 mb 0.00 in0.0 mm 0.00 in0.0 mm 0.00 in0.0 mm
01:00 PM 71.5°F21.9°C 51.3°F10.7°C 49% 3.7 mph N6.0 kmh N 10.0 mph16.1 kmh 0.00 in0.0 mb 0.00 in0.0 mm 0.00 in0.0 mm 0.00 in0.0 mm
01:06 PM 71.7°F22.1°C 50.4°F10.2°C 47% 7.4 mph NE11.9 kmh NE 13.0 mph20.9 kmh 0.00 in0.0 mb 0.00 in0.0 mm 0.00 in0.0 mm 0.00 in0.0 mm
01:11 PM 72.0°F22.2°C 50.7°F10.4°C 47% 5.7 mph N9.2 kmh N 11.4 mph18.3 kmh 0.00 in0.0 mb 0.00 in0.0 mm 0.00 in0.0 mm 0.00 in0.0 mm
01:16 PM 72.2°F22.3°C 50.8°F10.4°C 47% 6.2 mph NE10.0 kmh NE 9.3 mph15.0 kmh 0.00 in0.0 mb 0.00 in0.0 mm 0.00 in0.0 mm 0.00 in0.0 mm
01:20 PM 72.1°F22.3°C 50.2°F10.1°C 46% 4.6 mph NNE7.4 kmh NNE 10.5 mph16.9 kmh 0.00 in0.0 mb 0.00 in0.0 mm 0.00 in0.0 mm 0.00 in0.0 mm
01:25 PM 72.0°F22.2°C 50.1°F10.1°C 46% 4.5 mph E7.2 kmh E 9.3 mph15.0 kmh 0.00 in0.0 mb 0.00 in0.0 mm 0.00 in0.0 mm 0.00 in0.0 mm
01:30 PM 72.0°F22.2°C 50.1°F10.1°C 46% 4.1 mph NE6.6 kmh NE 11.0 mph17.7 kmh 0.00 in0.0 mb 0.00 in0.0 mm 0.00 in0.0 mm 0.00 in0.0 mm
01:35 PM 72.2°F22.3°C 49.7°F9.8°C 45% 3.0 mph NE4.8 kmh NE 6.5 mph10.5 kmh 0.00 in0.0 mb 0.00 in0.0 mm 0.00 in0.0 mm 0.00 in0.0 mm
01:40 PM 72.5°F22.5°C 49.9°F9.9°C 45% 5.0 mph NNE8.0 kmh NNE 8.1 mph13.0 kmh 0.00 in0.0 mb 0.00 in0.0 mm 0.00 in0.0 mm 0.00 in0.0 mm
01:45 PM 72.6°F22.6°C 50.0°F10.0°C 45% 5.5 mph ENE8.9 kmh ENE 9.3 mph15.0 kmh 0.00 in0.0 mb 0.00 in0.0 mm 0.00 in0.0 mm 0.00 in0.0 mm
01:50 PM 72.5°F22.5°C 49.9°F9.9°C 45% 5.4 mph NE8.7 kmh NE 11.6 mph18.7 kmh 0.00 in0.0 mb 0.00 in0.0 mm 0.00 in0.0 mm 0.00 in0.0 mm
01:55 PM 72.7°F22.6°C 50.1°F10.1°C 45% 7.2 mph N11.6 kmh N 13.8 mph22.2 kmh 0.00 in0.0 mb 0.00 in0.0 mm 0.00 in0.0 mm 0.00 in0.0 mm
02:00 PM 72.9°F22.7°C 49.1°F9.5°C 43% 6.2 mph NE10.0 kmh NE 12.5 mph20.1 kmh 0.00 in0.0 mb 0.00 in0.0 mm 0.00 in0.0 mm 0.00 in0.0 mm
02:05 PM 73.0°F22.8°C 48.5°F9.2°C 42% 7.8 mph NNE12.6 kmh NNE 13.3 mph21.4 kmh 0.00 in0.0 mb 0.00 in0.0 mm 0.00 in0.0 mm 0.00 in0.0 mm
02:10 PM 73.0°F22.8°C 47.9°F8.8°C 41% 5.2 mph NE8.4 kmh NE 8.9 mph14.3 kmh 0.00 in0.0 mb 0.00 in0.0 mm 0.00 in0.0 mm 0.00 in0.0 mm
02:15 PM 73.2°F22.9°C 48.1°F8.9°C 41% 5.3 mph NNE8.5 kmh NNE 10.6 mph17.1 kmh 0.00 in0.0 mb 0.00 in0.0 mm 0.00 in0.0 mm 0.00 in0.0 mm
02:20 PM 73.2°F22.9°C 48.7°F9.3°C 42% 2.4 mph NNE3.9 kmh NNE 4.7 mph7.6 kmh 0.00 in0.0 mb 0.00 in0.0 mm 0.00 in0.0 mm 0.00 in0.0 mm
02:25 PM 73.4°F23.0°C 48.3°F9.1°C 41% 3.4 mph ENE5.5 kmh ENE 8.4 mph13.5 kmh 0.00 in0.0 mb 0.00 in0.0 mm 0.00 in0.0 mm 0.00 in0.0 mm
02:30 PM 73.5°F23.1°C 48.3°F9.1°C 41% 4.4 mph NE7.1 kmh NE 10.0 mph16.1 kmh 0.00 in0.0 mb 0.00 in0.0 mm 0.00 in0.0 mm 0.00 in0.0 mm
02:35 PM 73.7°F23.2°C 47.9°F8.8°C 40% 4.7 mph NE7.6 kmh NE 9.5 mph15.3 kmh 0.00 in0.0 mb 0.00 in0.0 mm 0.00 in0.0 mm 0.00 in0.0 mm
02:40 PM 73.7°F23.2°C 47.2°F8.4°C 39% 3.6 mph E5.8 kmh E 8.4 mph13.5 kmh 0.00 in0.0 mb 0.00 in0.0 mm 0.00 in0.0 mm 0.00 in0.0 mm
02:45 PM 73.5°F23.1°C 47.0°F8.3°C 39% 6.3 mph NE10.1 kmh NE 9.8 mph15.8 kmh 0.00 in0.0 mb 0.00 in0.0 mm 0.00 in0.0 mm 0.00 in0.0 mm
02:50 PM 73.3°F22.9°C 47.5°F8.6°C 40% 3.4 mph ENE5.5 kmh ENE 6.2 mph10.0 kmh 0.00 in0.0 mb 0.00 in0.0 mm 0.00 in0.0 mm 0.00 in0.0 mm
02:55 PM 73.2°F22.9°C 46.7°F8.2°C 39% 4.8 mph NNE7.7 kmh NNE 9.8 mph15.8 kmh 0.00 in0.0 mb 0.00 in0.0 mm 0.00 in0.0 mm 0.00 in0.0 mm
03:00 PM 73.2°F22.9°C 47.4°F8.6°C 40% 6.9 mph NE11.1 kmh NE 15.9 mph25.6 kmh 0.00 in0.0 mb 0.00 in0.0 mm 0.00 in0.0 mm 0.00 in0.0 mm
03:05 PM 72.9°F22.7°C 46.5°F8.1°C 39% 5.3 mph NNE8.5 kmh NNE 16.1 mph25.9 kmh 0.00 in0.0 mb 0.00 in0.0 mm 0.00 in0.0 mm 0.00 in0.0 mm
03:10 PM 72.7°F22.6°C 47.0°F8.3°C 40% 4.5 mph NNE7.2 kmh NNE 10.5 mph16.9 kmh 0.00 in0.0 mb 0.00 in0.0 mm 0.00 in0.0 mm 0.00 in0.0 mm
03:15 PM 72.7°F22.6°C 47.0°F8.3°C 40% 3.3 mph NE5.3 kmh NE 6.5 mph10.5 kmh 0.00 in0.0 mb 0.00 in0.0 mm 0.00 in0.0 mm 0.00 in0.0 mm
03:20 PM 72.5°F22.5°C 46.8°F8.2°C 40% 3.1 mph E5.0 kmh E 4.7 mph7.6 kmh 0.00 in0.0 mb 0.00 in0.0 mm 0.00 in0.0 mm 0.00 in0.0 mm
03:25 PM 72.3°F22.4°C 45.9°F7.7°C 39% 4.9 mph NNE7.9 kmh NNE 9.8 mph15.8 kmh 0.00 in0.0 mb 0.00 in0.0 mm 0.00 in0.0 mm 0.00 in0.0 mm
03:30 PM 72.2°F22.3°C 46.5°F8.1°C 40% 3.3 mph E5.3 kmh E 7.2 mph11.6 kmh 0.00 in0.0 mb 0.00 in0.0 mm 0.00 in0.0 mm 0.00 in0.0 mm
03:35 PM 72.2°F22.3°C 46.5°F8.1°C 40% 6.4 mph NE10.3 kmh NE 13.0 mph20.9 kmh 0.00 in0.0 mb 0.00 in0.0 mm 0.00 in0.0 mm 0.00 in0.0 mm
03:40 PM 72.2°F22.3°C 46.5°F8.1°C 40% 4.4 mph NE7.1 kmh NE 9.3 mph15.0 kmh 0.00 in0.0 mb 0.00 in0.0 mm 0.00 in0.0 mm 0.00 in0.0 mm
03:45 PM 72.2°F22.3°C 47.2°F8.4°C 41% 4.0 mph NNE6.4 kmh NNE 8.4 mph13.5 kmh 0.00 in0.0 mb 0.00 in0.0 mm 0.00 in0.0 mm 0.00 in0.0 mm
03:50 PM 72.2°F22.3°C 47.2°F8.4°C 41% 3.3 mph NE5.3 kmh NE 5.4 mph8.7 kmh 0.00 in0.0 mb 0.00 in0.0 mm 0.00 in0.0 mm 0.00 in0.0 mm
03:55 PM 72.3°F22.4°C 47.9°F8.8°C 42% 0.5 mph SE0.8 kmh SE 1.3 mph2.1 kmh 0.00 in0.0 mb 0.00 in0.0 mm 0.00 in0.0 mm 0.00 in0.0 mm
03:59 PM 72.4°F22.4°C 48.6°F9.2°C 43% 3.3 mph ENE5.3 kmh ENE 7.5 mph12.1 kmh 0.00 in0.0 mb 0.00 in0.0 mm 0.00 in0.0 mm 0.00 in0.0 mm
04:04 PM 72.4°F22.4°C 47.4°F8.6°C 41% 3.3 mph E5.3 kmh E 7.7 mph12.4 kmh 0.00 in0.0 mb 0.00 in0.0 mm 0.00 in0.0 mm 0.00 in0.0 mm
04:10 PM 72.0°F22.2°C 47.6°F8.7°C 42% 3.2 mph E5.1 kmh E 6.5 mph10.5 kmh 0.00 in0.0 mb 0.00 in0.0 mm 0.00 in0.0 mm 0.00 in0.0 mm
04:15 PM 71.8°F22.1°C 46.8°F8.2°C 41% 4.2 mph E6.8 kmh E 5.7 mph9.2 kmh 0.00 in0.0 mb 0.00 in0.0 mm 0.00 in0.0 mm 0.00 in0.0 mm
04:19 PM 71.7°F22.1°C 48.0°F8.9°C 43% 5.4 mph ENE8.7 kmh ENE 9.0 mph14.5 kmh 0.00 in0.0 mb 0.00 in0.0 mm 0.00 in0.0 mm 0.00 in0.0 mm
04:24 PM 71.5°F21.9°C 47.8°F8.8°C 43% 5.1 mph NE8.2 kmh NE 8.1 mph13.0 kmh 0.00 in0.0 mb 0.00 in0.0 mm 0.00 in0.0 mm 0.00 in0.0 mm
04:29 PM 71.4°F21.9°C 47.1°F8.4°C 42% 4.5 mph E7.2 kmh E 8.5 mph13.7 kmh 0.00 in0.0 mb 0.00 in0.0 mm 0.00 in0.0 mm 0.00 in0.0 mm
04:34 PM 71.2°F21.8°C 48.2°F9.0°C 44% 2.4 mph NE3.9 kmh NE 5.5 mph8.9 kmh 0.00 in0.0 mb 0.00 in0.0 mm 0.00 in0.0 mm 0.00 in0.0 mm
04:39 PM 71.0°F21.7°C 48.0°F8.9°C 44% 2.0 mph SE3.2 kmh SE 5.5 mph8.9 kmh 0.00 in0.0 mb 0.00 in0.0 mm 0.00 in0.0 mm 0.00 in0.0 mm
04:44 PM 70.9°F21.6°C 47.9°F8.8°C 44% 3.2 mph ENE5.1 kmh ENE 7.0 mph11.3 kmh 0.00 in0.0 mb 0.00 in0.0 mm 0.00 in0.0 mm 0.00 in0.0 mm
04:49 PM 70.7°F21.5°C 47.7°F8.7°C 44% 1.7 mph NE2.7 kmh NE 3.0 mph4.8 kmh 0.00 in0.0 mb 0.00 in0.0 mm 0.00 in0.0 mm 0.00 in0.0 mm
04:54 PM 70.5°F21.4°C 48.1°F8.9°C 45% 2.7 mph NE4.3 kmh NE 5.7 mph9.2 kmh 0.00 in0.0 mb 0.00 in0.0 mm 0.00 in0.0 mm 0.00 in0.0 mm
04:59 PM 70.2°F21.2°C 47.9°F8.8°C 45% 4.0 mph NE6.4 kmh NE 8.4 mph13.5 kmh 0.00 in0.0 mb 0.00 in0.0 mm 0.00 in0.0 mm 0.00 in0.0 mm
05:04 PM 69.9°F21.1°C 47.6°F8.7°C 45% 2.3 mph NE3.7 kmh NE 5.7 mph9.2 kmh 0.00 in0.0 mb 0.00 in0.0 mm 0.00 in0.0 mm 0.00 in0.0 mm
05:09 PM 69.7°F20.9°C 47.4°F8.6°C 45% 2.9 mph ENE4.7 kmh ENE 5.5 mph8.9 kmh 0.00 in0.0 mb 0.00 in0.0 mm 0.00 in0.0 mm 0.00 in0.0 mm
05:14 PM 69.5°F20.8°C 47.8°F8.8°C 46% 3.2 mph ENE5.1 kmh ENE 7.5 mph12.1 kmh 0.00 in0.0 mb 0.00 in0.0 mm 0.00 in0.0 mm 0.00 in0.0 mm
05:19 PM 69.3°F20.7°C 48.2°F9.0°C 47% 2.6 mph NE4.2 kmh NE 5.5 mph8.9 kmh 0.00 in0.0 mb 0.00 in0.0 mm 0.00 in0.0 mm 0.00 in0.0 mm
05:24 PM 69.0°F20.6°C 48.5°F9.2°C 48% 2.0 mph NE3.2 kmh NE 6.0 mph9.7 kmh 0.00 in0.0 mb 0.00 in0.0 mm 0.00 in0.0 mm 0.00 in0.0 mm
05:29 PM 68.9°F20.5°C 48.9°F9.4°C 49% 1.1 mph ESE1.8 kmh ESE 3.2 mph5.1 kmh 0.00 in0.0 mb 0.00 in0.0 mm 0.00 in0.0 mm 0.00 in0.0 mm
05:34 PM 68.5°F20.3°C 49.1°F9.5°C 50% 1.2 mph NE1.9 kmh NE 4.0 mph6.4 kmh 0.00 in0.0 mb 0.00 in0.0 mm 0.00 in0.0 mm 0.00 in0.0 mm
05:39 PM 68.3°F20.2°C 49.5°F9.7°C 51% 3.7 mph NNE6.0 kmh NNE 5.7 mph9.2 kmh 0.00 in0.0 mb 0.00 in0.0 mm 0.00 in0.0 mm 0.00 in0.0 mm
05:44 PM 68.0°F20.0°C 49.2°F9.6°C 51% 2.7 mph NE4.3 kmh NE 6.0 mph9.7 kmh 0.00 in0.0 mb 0.00 in0.0 mm 0.00 in0.0 mm 0.00 in0.0 mm
05:49 PM 67.9°F19.9°C 49.6°F9.8°C 52% 2.6 mph N4.2 kmh N 5.4 mph8.7 kmh 0.00 in0.0 mb 0.00 in0.0 mm 0.00 in0.0 mm 0.00 in0.0 mm
05:54 PM 67.7°F19.8°C 49.9°F9.9°C 53% 2.4 mph NE3.9 kmh NE 4.9 mph7.9 kmh 0.00 in0.0 mb 0.00 in0.0 mm 0.00 in0.0 mm 0.00 in0.0 mm
05:59 PM 67.5°F19.7°C 49.2°F9.6°C 52% 2.3 mph NE3.7 kmh NE 6.7 mph10.8 kmh 0.00 in0.0 mb 0.00 in0.0 mm 0.00 in0.0 mm 0.00 in0.0 mm
06:04 PM 67.3°F19.6°C 50.1°F10.1°C 54% 0.1 mph NNE0.2 kmh NNE 1.8 mph2.9 kmh 0.00 in0.0 mb 0.00 in0.0 mm 0.00 in0.0 mm 0.00 in0.0 mm
06:09 PM 67.0°F19.4°C 49.8°F9.9°C 54% 1.8 mph ENE2.9 kmh ENE 4.0 mph6.4 kmh 0.00 in0.0 mb 0.00 in0.0 mm 0.00 in0.0 mm 0.00 in0.0 mm
06:14 PM 66.8°F19.3°C 50.1°F10.1°C 55% 0.1 mph E0.2 kmh E 1.8 mph2.9 kmh 0.00 in0.0 mb 0.00 in0.0 mm 0.00 in0.0 mm 0.00 in0.0 mm
06:19 PM 66.5°F19.2°C 50.3°F10.2°C 56% 0.2 mph E0.3 kmh E 2.1 mph3.4 kmh 0.00 in0.0 mb 0.00 in0.0 mm 0.00 in0.0 mm 0.00 in0.0 mm
06:24 PM 66.2°F19.0°C 50.0°F10.0°C 56% Calm Calm 1.1 mph1.8 kmh 0.00 in0.0 mb 0.00 in0.0 mm 0.00 in0.0 mm 0.00 in0.0 mm
06:40 PM 66.2°F19.0°C 50.0°F10.0°C 56% Calm Calm 1.1 mph1.8 kmh 0.00 in0.0 mb 0.00 in0.0 mm 0.00 in0.0 mm 0.00 in0.0 mm
06:45 PM 66.2°F19.0°C 50.0°F10.0°C 56% Calm Calm 1.1 mph1.8 kmh 0.00 in0.0 mb 0.00 in0.0 mm 0.00 in0.0 mm 0.00 in0.0 mm
06:50 PM 66.2°F19.0°C 50.0°F10.0°C 56% Calm Calm 1.1 mph1.8 kmh 0.00 in0.0 mb 0.00 in0.0 mm 0.00 in0.0 mm 0.00 in0.0 mm
06:55 PM 66.2°F19.0°C 50.0°F10.0°C 56% Calm Calm 1.1 mph1.8 kmh 0.00 in0.0 mb 0.00 in0.0 mm 0.00 in0.0 mm 0.00 in0.0 mm
07:00 PM 66.2°F19.0°C 50.0°F10.0°C 56% Calm Calm 1.1 mph1.8 kmh 0.00 in0.0 mb 0.00 in0.0 mm 0.00 in0.0 mm 0.00 in0.0 mm
07:05 PM 66.2°F19.0°C 50.0°F10.0°C 56% Calm Calm 1.1 mph1.8 kmh 0.00 in0.0 mb 0.00 in0.0 mm 0.00 in0.0 mm 0.00 in0.0 mm
07:10 PM 66.2°F19.0°C 50.0°F10.0°C 56% Calm Calm 1.1 mph1.8 kmh 0.00 in0.0 mb 0.00 in0.0 mm 0.00 in0.0 mm 0.00 in0.0 mm
07:15 PM 66.2°F19.0°C 50.0°F10.0°C 56% Calm Calm 1.1 mph1.8 kmh 0.00 in0.0 mb 0.00 in0.0 mm 0.00 in0.0 mm 0.00 in0.0 mm
07:20 PM 66.2°F19.0°C 50.0°F10.0°C 56% Calm Calm 1.1 mph1.8 kmh 0.00 in0.0 mb 0.00 in0.0 mm 0.00 in0.0 mm 0.00 in0.0 mm
07:25 PM 66.2°F19.0°C 50.0°F10.0°C 56% Calm Calm 1.1 mph1.8 kmh 0.00 in0.0 mb 0.00 in0.0 mm 0.00 in0.0 mm 0.00 in0.0 mm
07:30 PM 66.2°F19.0°C 50.0°F10.0°C 56% Calm Calm 1.1 mph1.8 kmh 0.00 in0.0 mb 0.00 in0.0 mm 0.00 in0.0 mm 0.00 in0.0 mm
07:35 PM 66.2°F19.0°C 50.0°F10.0°C 56% Calm Calm 1.1 mph1.8 kmh 0.00 in0.0 mb 0.00 in0.0 mm 0.00 in0.0 mm 0.00 in0.0 mm
07:40 PM 66.2°F19.0°C 50.0°F10.0°C 56% Calm Calm 1.1 mph1.8 kmh 0.00 in0.0 mb 0.00 in0.0 mm 0.00 in0.0 mm 0.00 in0.0 mm
07:45 PM 66.2°F19.0°C 50.0°F10.0°C 56% Calm Calm 1.1 mph1.8 kmh 0.00 in0.0 mb 0.00 in0.0 mm 0.00 in0.0 mm 0.00 in0.0 mm
07:50 PM 66.2°F19.0°C 50.0°F10.0°C 56% Calm Calm 1.1 mph1.8 kmh 0.00 in0.0 mb 0.00 in0.0 mm 0.00 in0.0 mm 0.00 in0.0 mm
07:55 PM 66.2°F19.0°C 50.0°F10.0°C 56% Calm Calm 1.1 mph1.8 kmh 0.00 in0.0 mb 0.00 in0.0 mm 0.00 in0.0 mm 0.00 in0.0 mm
08:00 PM 66.2°F19.0°C 50.0°F10.0°C 56% Calm Calm 1.1 mph1.8 kmh 0.00 in0.0 mb 0.00 in0.0 mm 0.00 in0.0 mm 0.00 in0.0 mm
08:05 PM 66.2°F19.0°C 50.0°F10.0°C 56% Calm Calm 1.1 mph1.8 kmh 0.00 in0.0 mb 0.00 in0.0 mm 0.00 in0.0 mm 0.00 in0.0 mm
08:10 PM 66.2°F19.0°C 50.0°F10.0°C 56% Calm Calm 1.1 mph1.8 kmh 0.00 in0.0 mb 0.00 in0.0 mm 0.00 in0.0 mm 0.00 in0.0 mm
08:15 PM 66.2°F19.0°C 50.0°F10.0°C 56% Calm Calm 1.1 mph1.8 kmh 0.00 in0.0 mb 0.00 in0.0 mm 0.00 in0.0 mm 0.00 in0.0 mm
08:20 PM 66.2°F19.0°C 50.0°F10.0°C 56% Calm Calm 1.1 mph1.8 kmh 0.00 in0.0 mb 0.00 in0.0 mm 0.00 in0.0 mm 0.00 in0.0 mm
08:25 PM 66.2°F19.0°C 50.0°F10.0°C 56% Calm Calm 1.1 mph1.8 kmh 0.00 in0.0 mb 0.00 in0.0 mm 0.00 in0.0 mm 0.00 in0.0 mm
08:30 PM 66.2°F19.0°C 50.0°F10.0°C 56% Calm Calm 1.1 mph1.8 kmh 0.00 in0.0 mb 0.00 in0.0 mm 0.00 in0.0 mm 0.00 in0.0 mm
08:35 PM 66.2°F19.0°C 50.0°F10.0°C 56% Calm Calm 1.1 mph1.8 kmh 0.00 in0.0 mb 0.00 in0.0 mm 0.00 in0.0 mm 0.00 in0.0 mm
08:40 PM 66.2°F19.0°C 50.0°F10.0°C 56% Calm Calm 1.1 mph1.8 kmh 0.00 in0.0 mb 0.00 in0.0 mm 0.00 in0.0 mm 0.00 in0.0 mm
08:45 PM 66.2°F19.0°C 50.0°F10.0°C 56% Calm Calm 1.1 mph1.8 kmh 0.00 in0.0 mb 0.00 in0.0 mm 0.00 in0.0 mm 0.00 in0.0 mm
08:50 PM 66.2°F19.0°C 50.0°F10.0°C 56% Calm Calm 1.1 mph1.8 kmh 0.00 in0.0 mb 0.00 in0.0 mm 0.00 in0.0 mm 0.00 in0.0 mm
08:55 PM 66.2°F19.0°C 50.0°F10.0°C 56% Calm Calm 1.1 mph1.8 kmh 0.00 in0.0 mb 0.00 in0.0 mm 0.00 in0.0 mm 0.00 in0.0 mm
09:00 PM 66.2°F19.0°C 50.0°F10.0°C 56% Calm Calm 1.1 mph1.8 kmh 0.00 in0.0 mb 0.00 in0.0 mm 0.00 in0.0 mm 0.00 in0.0 mm
09:05 PM 66.2°F19.0°C 50.0°F10.0°C 56% Calm Calm 1.1 mph1.8 kmh 0.00 in0.0 mb 0.00 in0.0 mm 0.00 in0.0 mm 0.00 in0.0 mm
09:10 PM 66.2°F19.0°C 50.0°F10.0°C 56% Calm Calm 1.1 mph1.8 kmh 0.00 in0.0 mb 0.00 in0.0 mm 0.00 in0.0 mm 0.00 in0.0 mm
09:15 PM 66.2°F19.0°C 50.0°F10.0°C 56% Calm Calm 1.1 mph1.8 kmh 0.00 in0.0 mb 0.00 in0.0 mm 0.00 in0.0 mm 0.00 in0.0 mm
09:20 PM 66.2°F19.0°C 50.0°F10.0°C 56% Calm Calm 1.1 mph1.8 kmh 0.00 in0.0 mb 0.00 in0.0 mm 0.00 in0.0 mm 0.00 in0.0 mm
09:25 PM 66.2°F19.0°C 50.0°F10.0°C 56% Calm Calm 1.1 mph1.8 kmh 0.00 in0.0 mb 0.00 in0.0 mm 0.00 in0.0 mm 0.00 in0.0 mm
09:30 PM 66.2°F19.0°C 50.0°F10.0°C 56% Calm Calm 1.1 mph1.8 kmh 0.00 in0.0 mb 0.00 in0.0 mm 0.00 in0.0 mm 0.00 in0.0 mm
09:35 PM 66.2°F19.0°C 50.0°F10.0°C 56% Calm Calm 1.1 mph1.8 kmh 0.00 in0.0 mb 0.00 in0.0 mm 0.00 in0.0 mm 0.00 in0.0 mm
09:40 PM 66.2°F19.0°C 50.0°F10.0°C 56% Calm Calm 1.1 mph1.8 kmh 0.00 in0.0 mb 0.00 in0.0 mm 0.00 in0.0 mm 0.00 in0.0 mm
09:45 PM 66.2°F19.0°C 50.0°F10.0°C 56% Calm Calm 1.1 mph1.8 kmh 0.00 in0.0 mb 0.00 in0.0 mm 0.00 in0.0 mm 0.00 in0.0 mm
09:50 PM 66.2°F19.0°C 50.0°F10.0°C 56% Calm Calm 1.1 mph1.8 kmh 0.00 in0.0 mb 0.00 in0.0 mm 0.00 in0.0 mm 0.00 in0.0 mm
09:55 PM 66.2°F19.0°C 50.0°F10.0°C 56% Calm Calm 1.1 mph1.8 kmh 0.00 in0.0 mb 0.00 in0.0 mm 0.00 in0.0 mm 0.00 in0.0 mm
10:00 PM 66.2°F19.0°C 50.0°F10.0°C 56% Calm Calm 1.1 mph1.8 kmh 0.00 in0.0 mb 0.00 in0.0 mm 0.00 in0.0 mm 0.00 in0.0 mm
10:05 PM 66.2°F19.0°C 50.0°F10.0°C 56% Calm Calm 1.1 mph1.8 kmh 0.00 in0.0 mb 0.00 in0.0 mm 0.00 in0.0 mm 0.00 in0.0 mm
10:10 PM 66.2°F19.0°C 50.0°F10.0°C 56% Calm Calm 1.1 mph1.8 kmh 0.00 in0.0 mb 0.00 in0.0 mm 0.00 in0.0 mm 0.00 in0.0 mm
10:15 PM 66.2°F19.0°C 50.0°F10.0°C 56% Calm Calm 1.1 mph1.8 kmh 0.00 in0.0 mb 0.00 in0.0 mm 0.00 in0.0 mm 0.00 in0.0 mm
10:20 PM 66.2°F19.0°C 50.0°F10.0°C 56% Calm Calm 1.1 mph1.8 kmh 0.00 in0.0 mb 0.00 in0.0 mm 0.00 in0.0 mm 0.00 in0.0 mm
10:25 PM 66.2°F19.0°C 50.0°F10.0°C 56% Calm Calm 1.1 mph1.8 kmh 0.00 in0.0 mb 0.00 in0.0 mm 0.00 in0.0 mm 0.00 in0.0 mm
10:30 PM 66.2°F19.0°C 50.0°F10.0°C 56% Calm Calm 1.1 mph1.8 kmh 0.00 in0.0 mb 0.00 in0.0 mm 0.00 in0.0 mm 0.00 in0.0 mm
10:35 PM 66.2°F19.0°C 50.0°F10.0°C 56% Calm Calm 1.1 mph1.8 kmh 0.00 in0.0 mb 0.00 in0.0 mm 0.00 in0.0 mm 0.00 in0.0 mm
10:40 PM 66.2°F19.0°C 50.0°F10.0°C 56% Calm Calm 1.1 mph1.8 kmh 0.00 in0.0 mb 0.00 in0.0 mm 0.00 in0.0 mm 0.00 in0.0 mm
10:45 PM 66.2°F19.0°C 50.0°F10.0°C 56% Calm Calm 1.1 mph1.8 kmh 0.00 in0.0 mb 0.00 in0.0 mm 0.00 in0.0 mm 0.00 in0.0 mm
10:50 PM 66.2°F19.0°C 50.0°F10.0°C 56% Calm Calm 1.1 mph1.8 kmh 0.00 in0.0 mb 0.00 in0.0 mm 0.00 in0.0 mm 0.00 in0.0 mm
10:55 PM 66.2°F19.0°C 50.0°F10.0°C 56% Calm Calm 1.1 mph1.8 kmh 0.00 in0.0 mb 0.00 in0.0 mm 0.00 in0.0 mm 0.00 in0.0 mm
11:00 PM 66.2°F19.0°C 50.0°F10.0°C 56% Calm Calm 1.1 mph1.8 kmh 0.00 in0.0 mb 0.00 in0.0 mm 0.00 in0.0 mm 0.00 in0.0 mm
11:05 PM 66.2°F19.0°C 50.0°F10.0°C 56% Calm Calm 1.1 mph1.8 kmh 0.00 in0.0 mb 0.00 in0.0 mm 0.00 in0.0 mm 0.00 in0.0 mm
11:10 PM 66.2°F19.0°C 50.0°F10.0°C 56% Calm Calm 1.1 mph1.8 kmh 0.00 in0.0 mb 0.00 in0.0 mm 0.00 in0.0 mm 0.00 in0.0 mm
11:15 PM 66.2°F19.0°C 50.0°F10.0°C 56% Calm Calm 1.1 mph1.8 kmh 0.00 in0.0 mb 0.00 in0.0 mm 0.00 in0.0 mm 0.00 in0.0 mm
11:20 PM 66.2°F19.0°C 50.0°F10.0°C 56% Calm Calm 1.1 mph1.8 kmh 0.00 in0.0 mb 0.00 in0.0 mm 0.00 in0.0 mm 0.00 in0.0 mm
11:25 PM 66.2°F19.0°C 50.0°F10.0°C 56% Calm Calm 1.1 mph1.8 kmh 0.00 in0.0 mb 0.00 in0.0 mm 0.00 in0.0 mm 0.00 in0.0 mm
11:30 PM 66.2°F19.0°C 50.0°F10.0°C 56% Calm Calm 1.1 mph1.8 kmh 0.00 in0.0 mb 0.00 in0.0 mm 0.00 in0.0 mm 0.00 in0.0 mm
11:35 PM 66.2°F19.0°C 50.0°F10.0°C 56% Calm Calm 1.1 mph1.8 kmh 0.00 in0.0 mb 0.00 in0.0 mm 0.00 in0.0 mm 0.00 in0.0 mm
11:40 PM 66.2°F19.0°C 50.0°F10.0°C 56% Calm Calm 1.1 mph1.8 kmh 0.00 in0.0 mb 0.00 in0.0 mm 0.00 in0.0 mm 0.00 in0.0 mm
11:45 PM 66.2°F19.0°C 50.0°F10.0°C 56% Calm Calm 1.1 mph1.8 kmh 0.00 in0.0 mb 0.00 in0.0 mm 0.00 in0.0 mm 0.00 in0.0 mm
11:50 PM 66.2°F19.0°C 50.0°F10.0°C 56% Calm Calm 1.1 mph1.8 kmh 0.00 in0.0 mb 0.00 in0.0 mm 0.00 in0.0 mm 0.00 in0.0 mm
11:55 PM 66.2°F19.0°C 50.0°F10.0°C 56% Calm Calm 1.1 mph1.8 kmh 0.00 in0.0 mb 0.00 in0.0 mm 0.00 in0.0 mm 0.00 in0.0 mm